Austin Golding — WDC8113 — position and weather

sailwx.info

Track history (hours):
 
Tides and Currents Weather Stations Pressure Air Temp Water Temp Dewpoint Dewpoint Depression Visibility Wind Speed Wind Dir Waves Ship Positions

Austin Golding

Owner: Golding Barge Line, Inc., Vicksburg, MS. More information available from US FCC via Universal Licensing System and Coast Guard Vessel Documentation Center.

Last reported at 2018-Feb-19 00:04 UTC. Time now 2018-Feb-21 22:59 UTC.
Position N 30°27' W 086°17'.

Length 211 m; draft 2.9 m.

Type: . MMSI: 367081860.

Date/timePositionNaut miles runAvg speedWind from/ knotsBaromVisibWave heightAir tempDewpointWater temp
2018-Feb-19 00:04N 30°27' W 086°17'1 6.0
2018-Feb-18 23:57N 30°26' W 086°18'3 5.9
2018-Feb-18 23:30N 30°26' W 086°21'3 6.0
2018-Feb-18 23:00N 30°26' W 086°25'3 6.0
2018-Feb-18 22:30N 30°26' W 086°28'3 5.9
2018-Feb-18 22:00N 30°25' W 086°31'11 4.8
2018-Feb-18 19:37N 30°24' W 086°45'1 4.9
2018-Feb-18 19:29N 30°24' W 086°45'3 5.3
2018-Feb-18 19:00N 30°24' W 086°48'3 5.5
2018-Feb-18 18:30N 30°24' W 086°51'  
2018-Feb-14 19:32N 30°24' W 086°53'0 6.9
2018-Feb-14 19:30N 30°24' W 086°52'3 6.8
2018-Feb-14 19:00N 30°24' W 086°48'3 6.4
2018-Feb-14 18:30N 30°24' W 086°45'11 6.9
2018-Feb-14 16:55N 30°25' W 086°32'3 7.3
2018-Feb-14 16:30N 30°26' W 086°29'4 7.5
2018-Feb-14 16:00N 30°26' W 086°25'4 7.4
2018-Feb-14 15:30N 30°26' W 086°20'  
2018-Feb-11 12:25N 30°26' W 086°18'2 6.0
2018-Feb-11 12:00N 30°26' W 086°21'3 6.1
2018-Feb-11 11:30N 30°26' W 086°25'2 3.5
2018-Feb-11 11:00N 30°26' W 086°27'0 0.4
2018-Feb-11 10:30N 30°26' W 086°27'3 5.8
2018-Feb-11 10:00N 30°26' W 086°30'12 5.3
2018-Feb-11 07:39N 30°24' W 086°45'1 5.3
2018-Feb-11 07:26N 30°24' W 086°46'3 5.9
2018-Feb-11 07:00N 30°24' W 086°49'3 5.9
2018-Feb-11 06:30N 30°24' W 086°52'  
Track history (hours):
 
Tides and Currents Weather Stations Pressure Air Temp Water Temp Dewpoint Dewpoint Depression Visibility Wind Speed Wind Dir Waves Ship Positions

Austin Golding

Owner: Golding Barge Line, Inc., Vicksburg, MS. More information available from US FCC via Universal Licensing System and Coast Guard Vessel Documentation Center.

Last reported at 2018-Feb-19 00:04 UTC. Time now 2018-Feb-21 22:59 UTC.
Position N 30°27' W 086°17'.

Length 211 m; draft 2.9 m.

Type: . MMSI: 367081860.

Date/timePositionNaut miles runAvg speedWind from/ knotsBaromVisibWave heightAir tempDewpointWater temp
2018-Feb-19 00:04N 30°27' W 086°17'1 6.0
2018-Feb-18 23:57N 30°26' W 086°18'3 5.9
2018-Feb-18 23:30N 30°26' W 086°21'3 6.0
2018-Feb-18 23:00N 30°26' W 086°25'3 6.0
2018-Feb-18 22:30N 30°26' W 086°28'3 5.9
2018-Feb-18 22:00N 30°25' W 086°31'11 4.8
2018-Feb-18 19:37N 30°24' W 086°45'1 4.9
2018-Feb-18 19:29N 30°24' W 086°45'3 5.3
2018-Feb-18 19:00N 30°24' W 086°48'3 5.5
2018-Feb-18 18:30N 30°24' W 086°51'  
2018-Feb-14 19:32N 30°24' W 086°53'0 6.9
2018-Feb-14 19:30N 30°24' W 086°52'3 6.8
2018-Feb-14 19:00N 30°24' W 086°48'3 6.4
2018-Feb-14 18:30N 30°24' W 086°45'11 6.9
2018-Feb-14 16:55N 30°25' W 086°32'3 7.3
2018-Feb-14 16:30N 30°26' W 086°29'4 7.5
2018-Feb-14 16:00N 30°26' W 086°25'4 7.4
2018-Feb-14 15:30N 30°26' W 086°20'  
2018-Feb-11 12:25N 30°26' W 086°18'2 6.0
2018-Feb-11 12:00N 30°26' W 086°21'3 6.1
2018-Feb-11 11:30N 30°26' W 086°25'2 3.5
2018-Feb-11 11:00N 30°26' W 086°27'0 0.4
2018-Feb-11 10:30N 30°26' W 086°27'3 5.8
2018-Feb-11 10:00N 30°26' W 086°30'12 5.3
2018-Feb-11 07:39N 30°24' W 086°45'1 5.3
2018-Feb-11 07:26N 30°24' W 086°46'3 5.9
2018-Feb-11 07:00N 30°24' W 086°49'3 5.9
2018-Feb-11 06:30N 30°24' W 086°52'  

Dump ship's entire track history